Lamont, IA (50650)

11:25 PM CDT on May 06, 2015 (GMT -0500)
IADOT | | Change Station
CLOSE
Current Station
Personal Weather Station
Location: Manchester, IA
Elevation: 1013 ft
Nearby Weather Stations

Elev 1013 ft 42.47 °N, 91.45 °W | Updated 24 minutes ago

Overcast
Overcast
66 °F
Feels Like 66 °F
N
4
Wind Variable Wind from East
Gusts 7.0 mph

Today
High -- | Low -- °F
--% Chance of Precip.
Yesterday
High -- | Low -- °F
Precip. -- in
5:55 AM 8:12 PM
Waning Gibbous, 90% visible
Pressure 29.95 in
Visibility 10.0 miles
Clouds Few 5500 ft
Scattered Clouds 7000 ft
Mostly Cloudy 10000 ft
Dew Point 58 °F
Humidity 75%
Rainfall in
Snow Depth Not available.
UV 0 out of 12
Pollen 10.90 out of 12
Air Quality Not available.
Flu Activity Local Activity
METAR KOLZ 070415Z AUTO 13010KT 10SM FEW055 SCT070 BKN100 17/15 A2995 RMK AO2

More Conditions Fewer Conditions

Pressure 29.95 in
Visibility 10.0 miles
Clouds Few 5500 ft
Scattered Clouds 7000 ft
Mostly Cloudy 10000 ft
Dew Point 58 °F
Humidity 75%
Rainfall in
Snow Depth Not available.
UV 0 out of 12
Pollen 10.90 out of 12
Air Quality Not available.
Flu Activity Local Activity
METAR KOLZ 070415Z AUTO 13010KT 10SM FEW055 SCT070 BKN100 17/15 A2995 RMK AO2

More Conditions Fewer Conditions

10-Day Weather Forecast

Almanac

Astronomy

May. 06, 2015 Rise Set
Actual Time
Civil Twilight
Nautical Twilight
Astronomical Twilight
Moon
Length of Visible Light
Length of Day
Tomorrow will be .
, % of the Moon is Illuminated

Today's Extremes

State Highs State Lows

Community

WunderPhotos

Upload Photos

1,819,120 photos uploaded!

WunderBlogs® & News

Nearby

Air Quality

  Air Quality AQ Index Pollutant
Not available.

Snow Depth

Station Depth Elevation

Earthquake Activity

City Distance Mag. Time & Date
Minimum magnitude displayed is 2.5.

Coastal Water Temperatures

Place Temperature

Stations

Nearby Weather Stations

Station Location Temp. Windchill Dew Point Humidity Wind Precip. Elev Updated Type